createdAt,value
2018-12-13T00:00:10.905Z,1018.56
2018-12-13T00:01:10.880Z,1018.57
2018-12-13T00:02:10.854Z,1018.57
2018-12-13T00:03:10.826Z,1018.55
2018-12-13T00:04:10.805Z,1018.56
2018-12-13T00:05:10.775Z,1018.53
2018-12-13T00:06:10.749Z,1018.54
2018-12-13T00:07:10.726Z,1018.52
2018-12-13T00:08:10.701Z,1018.50
2018-12-13T00:09:10.678Z,1018.48
2018-12-13T00:10:10.649Z,1018.49
2018-12-13T00:11:10.622Z,1018.44
2018-12-13T00:12:10.596Z,1018.48
2018-12-13T00:13:10.580Z,1018.45
2018-12-13T00:14:10.548Z,1018.45
2018-12-13T00:15:10.523Z,1018.42
2018-12-13T00:16:10.493Z,1018.45
2018-12-13T00:17:10.470Z,1018.46
2018-12-13T00:18:10.443Z,1018.45
2018-12-13T00:19:10.424Z,1018.49
2018-12-13T00:20:10.390Z,1018.46
2018-12-13T00:21:10.366Z,1018.47
2018-12-13T00:22:10.341Z,1018.43
2018-12-13T00:23:10.315Z,1018.45
2018-12-13T00:24:10.287Z,1018.45
2018-12-13T00:25:10.260Z,1018.46
2018-12-13T00:26:10.238Z,1018.46
2018-12-13T00:27:10.211Z,1018.45
2018-12-13T00:28:10.184Z,1018.45
2018-12-13T00:29:10.167Z,1018.46
2018-12-13T00:30:10.133Z,1018.46
2018-12-13T00:31:10.107Z,1018.44
2018-12-13T00:32:10.081Z,1018.44
2018-12-13T00:33:10.061Z,1018.42
2018-12-13T00:34:10.030Z,1018.44
2018-12-13T00:35:10.012Z,1018.44
2018-12-13T00:36:09.979Z,1018.47
2018-12-13T00:37:09.953Z,1018.47
2018-12-13T00:38:09.926Z,1018.44
2018-12-13T00:39:09.900Z,1018.48
2018-12-13T00:40:09.886Z,1018.45
2018-12-13T00:41:09.850Z,1018.43
2018-12-13T00:42:09.823Z,1018.42
2018-12-13T00:43:09.798Z,1018.43
2018-12-13T00:44:09.778Z,1018.44
2018-12-13T00:45:09.746Z,1018.44
2018-12-13T00:46:09.720Z,1018.42
2018-12-13T00:47:09.694Z,1018.41
2018-12-13T00:48:09.669Z,1018.42
2018-12-13T00:49:09.642Z,1018.40
2018-12-13T00:50:09.618Z,1018.41
2018-12-13T00:51:09.592Z,1018.39
2018-12-13T00:52:09.570Z,1018.37
2018-12-13T00:53:09.547Z,1018.41
2018-12-13T00:54:09.516Z,1018.39
2018-12-13T00:55:09.491Z,1018.40
2018-12-13T00:56:09.466Z,1018.37
2018-12-13T00:57:09.445Z,1018.36
2018-12-13T00:58:09.414Z,1018.36
2018-12-13T00:59:09.388Z,1018.37
2018-12-13T01:00:09.362Z,1018.33
2018-12-13T01:01:09.342Z,1018.30
2018-12-13T01:02:09.327Z,1018.29
2018-12-13T01:03:09.285Z,1018.30
2018-12-13T01:04:09.262Z,1018.33
2018-12-13T01:05:09.233Z,1018.32
2018-12-13T01:06:09.206Z,1018.30
2018-12-13T01:07:09.182Z,1018.29
2018-12-13T01:08:09.154Z,1018.27
2018-12-13T01:09:09.133Z,1018.28
2018-12-13T01:10:09.103Z,1018.26
2018-12-13T01:11:09.083Z,1018.26
2018-12-13T01:12:09.055Z,1018.25
2018-12-13T01:13:09.027Z,1018.25
2018-12-13T01:14:09.002Z,1018.22
2018-12-13T01:15:08.981Z,1018.21
2018-12-13T01:16:08.952Z,1018.20
2018-12-13T01:17:08.930Z,1018.20
2018-12-13T01:18:08.908Z,1018.17
2018-12-13T01:19:08.875Z,1018.20
2018-12-13T01:20:08.849Z,1018.17
2018-12-13T01:21:08.832Z,1018.14
2018-12-13T01:22:08.796Z,1018.12
2018-12-13T01:23:08.770Z,1018.17
2018-12-13T01:24:08.745Z,1018.17
2018-12-13T01:25:08.729Z,1018.13
2018-12-13T01:26:08.694Z,1018.16
2018-12-13T01:27:08.670Z,1018.09
2018-12-13T01:28:08.657Z,1018.11
2018-12-13T01:29:08.618Z,1018.10
2018-12-13T01:30:08.593Z,1018.14
2018-12-13T01:31:08.564Z,1018.10
2018-12-13T01:32:08.541Z,1018.09
2018-12-13T01:33:08.522Z,1018.10
2018-12-13T01:34:08.487Z,1018.12
2018-12-13T01:35:08.463Z,1018.13
2018-12-13T01:36:08.437Z,1018.13
2018-12-13T01:37:08.413Z,1018.07
2018-12-13T01:38:08.385Z,1018.10
2018-12-13T01:39:08.359Z,1018.08
2018-12-13T01:40:08.339Z,1018.06
2018-12-13T01:41:08.314Z,1018.08
2018-12-13T01:42:08.284Z,1018.04
2018-12-13T01:43:08.258Z,1018.09
2018-12-13T01:44:08.234Z,1018.10
2018-12-13T01:45:08.206Z,1018.08
2018-12-13T01:46:08.182Z,1018.09
2018-12-13T01:47:08.154Z,1018.07
2018-12-13T01:48:08.129Z,1018.09
2018-12-13T01:49:08.109Z,1018.11
2018-12-13T01:50:08.077Z,1018.11
2018-12-13T01:51:08.052Z,1018.10
2018-12-13T01:52:08.026Z,1018.05
2018-12-13T01:53:08.012Z,1018.06
2018-12-13T01:54:07.994Z,1018.09
2018-12-13T01:55:07.952Z,1018.06
2018-12-13T01:56:07.929Z,1018.06
2018-12-13T01:57:07.902Z,1018.07
2018-12-13T01:58:07.894Z,1018.08
2018-12-13T01:59:07.844Z,1018.09
2018-12-13T02:00:07.818Z,1018.05
2018-12-13T02:01:07.795Z,1018.02
2018-12-13T02:02:07.767Z,1018.04
2018-12-13T02:03:07.744Z,1018.05
2018-12-13T02:04:07.720Z,1018.03
2018-12-13T02:05:07.690Z,1018.04
2018-12-13T02:06:07.670Z,1018.05
2018-12-13T02:07:07.639Z,1018.05
2018-12-13T02:08:07.613Z,1018.01
2018-12-13T02:09:07.588Z,1018.03
2018-12-13T02:10:07.563Z,1018.01
2018-12-13T02:11:07.540Z,1018.03
2018-12-13T02:12:07.511Z,1018.04
2018-12-13T02:13:07.484Z,1018.03
2018-12-13T02:14:07.459Z,1018.01
2018-12-13T02:15:07.434Z,1017.99
2018-12-13T02:16:07.406Z,1018.00
2018-12-13T02:17:07.379Z,1017.99
2018-12-13T02:18:08.956Z,1018.03
2018-12-13T02:19:07.330Z,1017.98
2018-12-13T02:20:07.306Z,1018.00
2018-12-13T02:21:07.281Z,1017.99
2018-12-13T02:22:07.258Z,1018.00
2018-12-13T02:23:07.227Z,1017.96
2018-12-13T02:24:07.202Z,1017.91
2018-12-13T02:25:07.174Z,1017.92
2018-12-13T02:26:07.151Z,1017.90
2018-12-13T02:27:07.124Z,1017.90
2018-12-13T02:28:07.102Z,1017.88
2018-12-13T02:29:07.072Z,1017.88
2018-12-13T02:30:07.047Z,1017.85
2018-12-13T02:31:07.022Z,1017.86
2018-12-13T02:32:06.995Z,1017.85
2018-12-13T02:33:06.972Z,1017.85
2018-12-13T02:34:06.945Z,1017.83
2018-12-13T02:35:06.922Z,1017.84
2018-12-13T02:36:06.891Z,1017.85
2018-12-13T02:37:06.867Z,1017.83
2018-12-13T02:38:06.841Z,1017.81
2018-12-13T02:39:06.815Z,1017.80
2018-12-13T02:40:06.788Z,1017.85
2018-12-13T02:41:06.761Z,1017.83
2018-12-13T02:42:06.737Z,1017.83
2018-12-13T02:43:06.720Z,1017.81
2018-12-13T02:44:06.691Z,1017.79
2018-12-13T02:45:06.661Z,1017.77
2018-12-13T02:46:06.635Z,1017.78
2018-12-13T02:47:06.608Z,1017.79
2018-12-13T02:48:06.587Z,1017.75
2018-12-13T02:49:06.566Z,1017.74
2018-12-13T02:50:06.533Z,1017.67
2018-12-13T02:51:06.505Z,1017.70
2018-12-13T02:52:06.481Z,1017.70
2018-12-13T02:53:06.455Z,1017.74
2018-12-13T02:54:06.426Z,1017.77
2018-12-13T02:55:06.400Z,1017.71
2018-12-13T02:56:06.380Z,1017.75
2018-12-13T02:57:06.353Z,1017.73
2018-12-13T02:58:06.325Z,1017.71
2018-12-13T02:59:06.297Z,1017.73
2018-12-13T03:00:06.273Z,1017.73
2018-12-13T03:01:06.250Z,1017.71
2018-12-13T03:02:06.225Z,1017.70
2018-12-13T03:03:06.194Z,1017.67
2018-12-13T03:04:06.167Z,1017.68
2018-12-13T03:05:06.142Z,1017.68
2018-12-13T03:06:06.115Z,1017.68
2018-12-13T03:07:13.251Z,1017.67
2018-12-13T03:08:06.064Z,1017.68
2018-12-13T03:09:06.040Z,1017.65
2018-12-13T03:10:06.024Z,1017.64
2018-12-13T03:11:05.986Z,1017.66
2018-12-13T03:12:05.961Z,1017.64
2018-12-13T03:13:05.943Z,1017.67
2018-12-13T03:14:05.909Z,1017.66
2018-12-13T03:15:05.883Z,1017.64
2018-12-13T03:16:05.860Z,1017.64
2018-12-13T03:17:05.834Z,1017.65
2018-12-13T03:18:05.810Z,1017.67
2018-12-13T03:19:05.779Z,1017.65
2018-12-13T03:20:05.846Z,1017.68
2018-12-13T03:21:05.734Z,1017.70
2018-12-13T03:22:05.767Z,1017.70
2018-12-13T03:23:05.681Z,1017.70
2018-12-13T03:24:05.652Z,1017.70
2018-12-13T03:25:05.630Z,1017.71
2018-12-13T03:26:05.601Z,1017.70
2018-12-13T03:27:05.577Z,1017.62
2018-12-13T03:28:05.549Z,1017.66
2018-12-13T03:29:05.524Z,1017.64
2018-12-13T03:30:05.496Z,1017.61
2018-12-13T03:31:05.475Z,1017.62
2018-12-13T03:32:05.445Z,1017.59
2018-12-13T03:33:05.420Z,1017.62
2018-12-13T03:34:05.394Z,1017.62
2018-12-13T03:35:05.367Z,1017.58
2018-12-13T03:36:05.339Z,1017.60
2018-12-13T03:37:05.315Z,1017.57
2018-12-13T03:38:05.297Z,1017.55
2018-12-13T03:39:05.274Z,1017.52
2018-12-13T03:40:05.238Z,1017.55
2018-12-13T03:41:05.212Z,1017.51
2018-12-13T03:42:05.190Z,1017.47
2018-12-13T03:43:05.160Z,1017.45
2018-12-13T03:44:05.134Z,1017.47
2018-12-13T03:45:05.110Z,1017.46
2018-12-13T03:46:05.082Z,1017.43
2018-12-13T03:47:05.055Z,1017.44
2018-12-13T03:48:05.030Z,1017.44
2018-12-13T03:49:05.005Z,1017.44
2018-12-13T03:50:04.981Z,1017.43
2018-12-13T03:51:04.955Z,1017.43
2018-12-13T03:52:05.020Z,1017.40
2018-12-13T03:53:04.903Z,1017.43
2018-12-13T03:54:04.873Z,1017.42
2018-12-13T03:55:04.848Z,1017.44
2018-12-13T03:56:04.822Z,1017.40
2018-12-13T03:57:04.795Z,1017.34
2018-12-13T03:58:04.772Z,1017.36
2018-12-13T03:59:04.742Z,1017.36
2018-12-13T04:00:04.716Z,1017.32
2018-12-13T04:01:04.692Z,1017.36
2018-12-13T04:02:04.665Z,1017.32
2018-12-13T04:03:04.640Z,1017.38
2018-12-13T04:04:04.656Z,1017.33
2018-12-13T04:05:04.587Z,1017.38
2018-12-13T04:06:04.562Z,1017.33
2018-12-13T04:07:04.537Z,1017.32
2018-12-13T04:08:04.507Z,1017.31
2018-12-13T04:09:04.482Z,1017.33
2018-12-13T04:10:04.458Z,1017.34
2018-12-13T04:11:04.431Z,1017.32
2018-12-13T04:12:04.410Z,1017.34
2018-12-13T04:13:04.388Z,1017.32
2018-12-13T04:14:04.352Z,1017.34
2018-12-13T04:15:04.325Z,1017.34
2018-12-13T04:16:04.299Z,1017.31
2018-12-13T04:17:04.285Z,1017.34
2018-12-13T04:18:04.257Z,1017.32
2018-12-13T04:19:04.223Z,1017.29
2018-12-13T04:20:04.195Z,1017.32
2018-12-13T04:21:04.168Z,1017.31
2018-12-13T04:22:04.141Z,1017.31
2018-12-13T04:23:04.116Z,1017.29
2018-12-13T04:24:04.098Z,1017.28
2018-12-13T04:25:04.068Z,1017.28
2018-12-13T04:26:04.037Z,1017.26
2018-12-13T04:27:04.011Z,1017.28
2018-12-13T04:28:03.985Z,1017.26
2018-12-13T04:29:03.958Z,1017.24
2018-12-13T04:30:03.939Z,1017.26
2018-12-13T04:31:03.905Z,1017.22
2018-12-13T04:32:03.879Z,1017.20
2018-12-13T04:33:03.854Z,1017.18
2018-12-13T04:34:03.830Z,1017.17
2018-12-13T04:35:03.802Z,1017.15
2018-12-13T04:36:03.774Z,1017.17
2018-12-13T04:37:03.748Z,1017.17
2018-12-13T04:38:03.723Z,1017.17
2018-12-13T04:39:03.697Z,1017.21
2018-12-13T04:40:03.673Z,1017.17
2018-12-13T04:41:03.648Z,1017.21
2018-12-13T04:42:03.622Z,1017.18
2018-12-13T04:43:03.592Z,1017.24
2018-12-13T04:44:03.566Z,1017.21
2018-12-13T04:45:03.541Z,1017.22
2018-12-13T04:46:03.512Z,1017.20
2018-12-13T04:47:03.488Z,1017.20
2018-12-13T04:48:03.461Z,1017.19
2018-12-13T04:49:03.439Z,1017.18
2018-12-13T04:50:03.410Z,1017.20
2018-12-13T04:51:03.385Z,1017.17
2018-12-13T04:52:03.358Z,1017.19
2018-12-13T04:53:03.328Z,1017.18
2018-12-13T04:54:03.304Z,1017.15
2018-12-13T04:55:03.283Z,1017.14
2018-12-13T04:56:03.253Z,1017.09
2018-12-13T04:57:03.237Z,1017.13
2018-12-13T04:58:03.199Z,1017.10
2018-12-13T04:59:03.242Z,1017.09
2018-12-13T05:00:03.148Z,1017.10
2018-12-13T05:01:03.130Z,1017.11
2018-12-13T05:02:03.094Z,1017.11
2018-12-13T05:03:03.068Z,1017.11
2018-12-13T05:04:03.041Z,1017.10
2018-12-13T05:05:03.015Z,1017.10
2018-12-13T05:06:02.989Z,1017.10
2018-12-13T05:07:02.963Z,1017.08
2018-12-13T05:08:02.937Z,1017.11
2018-12-13T05:09:02.916Z,1017.11
2018-12-13T05:10:02.884Z,1017.06
2018-12-13T05:11:02.859Z,1017.10
2018-12-13T05:12:02.831Z,1017.07
2018-12-13T05:13:02.805Z,1017.11
2018-12-13T05:14:02.781Z,1017.11
2018-12-13T05:15:02.752Z,1017.12
2018-12-13T05:16:02.727Z,1017.06
2018-12-13T05:17:02.709Z,1017.06
2018-12-13T05:18:02.676Z,1017.05
2018-12-13T05:19:02.651Z,1017.06
2018-12-13T05:20:02.630Z,1017.05
2018-12-13T05:21:02.602Z,1017.03
2018-12-13T05:22:02.571Z,1017.00
2018-12-13T05:23:02.541Z,1017.00
2018-12-13T05:24:02.521Z,1016.98
2018-12-13T05:25:02.490Z,1016.96
2018-12-13T05:26:02.467Z,1016.99
2018-12-13T05:27:02.441Z,1016.93
2018-12-13T05:28:02.416Z,1016.94
2018-12-13T05:29:02.386Z,1016.98
2018-12-13T05:30:02.359Z,1016.94
2018-12-13T05:31:02.334Z,1016.96
2018-12-13T05:32:02.308Z,1016.92
2018-12-13T05:33:02.282Z,1016.96
2018-12-13T05:34:02.259Z,1016.99
2018-12-13T05:35:02.289Z,1016.92
2018-12-13T05:36:02.204Z,1016.91
2018-12-13T05:37:02.176Z,1016.93
2018-12-13T05:38:02.157Z,1016.91
2018-12-13T05:39:02.124Z,1016.91
2018-12-13T05:40:02.097Z,1016.86
2018-12-13T05:41:02.070Z,1016.88
2018-12-13T05:42:02.052Z,1016.86
2018-12-13T05:43:02.024Z,1016.83
2018-12-13T05:44:01.993Z,1016.81
2018-12-13T05:45:01.968Z,1016.77
2018-12-13T05:46:01.944Z,1016.79
2018-12-13T05:47:01.914Z,1016.81
2018-12-13T05:48:01.887Z,1016.79
2018-12-13T05:49:01.869Z,1016.78
2018-12-13T05:50:01.837Z,1016.77
2018-12-13T05:51:01.810Z,1016.77
2018-12-13T05:52:01.783Z,1016.77
2018-12-13T05:53:01.758Z,1016.76
2018-12-13T05:54:01.731Z,1016.77
2018-12-13T05:55:01.702Z,1016.76
2018-12-13T05:56:01.676Z,1016.80
2018-12-13T05:57:01.650Z,1016.79
2018-12-13T05:58:01.624Z,1016.75
2018-12-13T05:59:01.604Z,1016.79
2018-12-13T06:00:01.573Z,1016.78
2018-12-13T06:01:01.545Z,1016.80
2018-12-13T06:02:01.517Z,1016.81
2018-12-13T06:03:01.492Z,1016.83
2018-12-13T06:04:01.470Z,1016.86
2018-12-13T06:05:01.456Z,1016.83
2018-12-13T06:06:01.420Z,1016.83
2018-12-13T06:07:01.394Z,1016.82
2018-12-13T06:08:01.365Z,1016.81
2018-12-13T06:09:01.338Z,1016.86
2018-12-13T06:10:01.312Z,1016.89
2018-12-13T06:11:01.282Z,1016.93
2018-12-13T06:12:01.254Z,1016.88
2018-12-13T06:13:01.234Z,1016.91
2018-12-13T06:14:01.201Z,1016.94
2018-12-13T06:15:01.178Z,1016.95
2018-12-13T06:16:01.151Z,1016.96
2018-12-13T06:17:01.128Z,1016.96
2018-12-13T06:18:06.641Z,1016.95
2018-12-13T06:19:01.070Z,1016.94
2018-12-13T06:20:01.044Z,1016.98
2018-12-13T06:21:01.020Z,1017.01
2018-12-13T06:22:00.996Z,1016.99
2018-12-13T06:23:00.970Z,1016.99
2018-12-13T06:24:00.939Z,1016.98
2018-12-13T06:25:00.913Z,1017.03
2018-12-13T06:26:00.888Z,1017.01
2018-12-13T06:27:00.861Z,1017.04
2018-12-13T06:28:00.836Z,1017.03
2018-12-13T06:29:00.817Z,1017.05
2018-12-13T06:30:07.290Z,1017.08
2018-12-13T06:31:00.759Z,1017.08
2018-12-13T06:32:00.730Z,1017.11
2018-12-13T06:33:00.703Z,1017.06
2018-12-13T06:34:00.674Z,1017.12
2018-12-13T06:35:00.652Z,1017.12
2018-12-13T06:36:00.621Z,1017.09
2018-12-13T06:37:00.593Z,1017.14
2018-12-13T06:38:01.389Z,1017.16
2018-12-13T06:39:00.541Z,1017.14
2018-12-13T06:40:00.523Z,1017.16
2018-12-13T06:41:00.490Z,1017.17
2018-12-13T06:42:00.467Z,1017.18
2018-12-13T06:43:00.442Z,1017.15
2018-12-13T06:44:00.413Z,1017.20
2018-12-13T06:45:00.383Z,1017.23
2018-12-13T06:46:00.364Z,1017.19
2018-12-13T06:47:00.330Z,1017.22
2018-12-13T06:48:00.303Z,1017.25
2018-12-13T06:49:00.279Z,1017.22
2018-12-13T06:50:00.254Z,1017.23
2018-12-13T06:51:00.224Z,1017.20
2018-12-13T06:52:00.197Z,1017.23
2018-12-13T06:53:00.172Z,1017.24
2018-12-13T06:54:00.145Z,1017.24
2018-12-13T06:55:00.117Z,1017.21
2018-12-13T06:56:00.094Z,1017.19
2018-12-13T06:57:00.665Z,1017.20
2018-12-13T06:58:00.046Z,1017.20
2018-12-13T06:59:00.012Z,1017.18
2018-12-13T06:59:59.985Z,1017.21
2018-12-13T07:00:59.961Z,1017.18
2018-12-13T07:01:59.934Z,1017.22
2018-12-13T07:02:59.910Z,1017.23
2018-12-13T07:03:59.882Z,1017.19
2018-12-13T07:04:59.853Z,1017.20
2018-12-13T07:05:59.826Z,1017.20
2018-12-13T07:06:59.802Z,1017.22
2018-12-13T07:07:59.773Z,1017.21
2018-12-13T07:08:59.746Z,1017.20
2018-12-13T07:09:59.720Z,1017.20
2018-12-13T07:10:59.693Z,1017.18
2018-12-13T07:11:59.671Z,1017.22
2018-12-13T07:12:59.640Z,1017.19
2018-12-13T07:13:59.622Z,1017.18
2018-12-13T07:14:59.588Z,1017.21
2018-12-13T07:15:59.560Z,1017.22
2018-12-13T07:16:59.539Z,1017.21
2018-12-13T07:17:59.508Z,1017.22
2018-12-13T07:18:59.483Z,1017.22
2018-12-13T07:19:59.532Z,1017.23
2018-12-13T07:20:59.429Z,1017.25
2018-12-13T07:21:59.401Z,1017.24
2018-12-13T07:22:59.375Z,1017.21
2018-12-13T07:23:59.350Z,1017.24
2018-12-13T07:24:59.325Z,1017.23
2018-12-13T07:25:59.301Z,1017.23
2018-12-13T07:26:59.278Z,1017.24
2018-12-13T07:27:59.251Z,1017.26
2018-12-13T07:28:59.217Z,1017.27
2018-12-13T07:29:59.191Z,1017.25
2018-12-13T07:30:59.171Z,1017.31
2018-12-13T07:31:59.138Z,1017.27
2018-12-13T07:32:59.114Z,1017.31
2018-12-13T07:33:59.086Z,1017.29
2018-12-13T07:35:01.401Z,1017.30
2018-12-13T07:35:59.033Z,1017.32
2018-12-13T07:36:59.006Z,1017.28
2018-12-13T07:37:58.976Z,1017.30
2018-12-13T07:38:59.221Z,1017.29
2018-12-13T07:39:58.926Z,1017.30
2018-12-13T07:40:58.900Z,1017.31
2018-12-13T07:41:58.871Z,1017.31
2018-12-13T07:42:58.846Z,1017.30
2018-12-13T07:43:58.819Z,1017.32
2018-12-13T07:44:58.792Z,1017.30
2018-12-13T07:45:58.765Z,1017.36
2018-12-13T07:46:58.740Z,1017.32
2018-12-13T07:47:58.716Z,1017.33
2018-12-13T07:48:58.689Z,1017.35
2018-12-13T07:49:58.663Z,1017.36
2018-12-13T07:50:58.639Z,1017.35
2018-12-13T07:51:58.609Z,1017.35
2018-12-13T07:52:58.583Z,1017.35
2018-12-13T07:53:58.565Z,1017.37
2018-12-13T07:54:58.532Z,1017.37
2018-12-13T07:55:58.507Z,1017.36
2018-12-13T07:56:58.477Z,1017.35
2018-12-13T07:57:58.453Z,1017.36
2018-12-13T07:58:58.424Z,1017.35
2018-12-13T07:59:58.404Z,1017.39
2018-12-13T08:00:58.372Z,1017.41
2018-12-13T08:01:58.344Z,1017.38
2018-12-13T08:02:58.319Z,1017.40
2018-12-13T08:03:58.290Z,1017.38
2018-12-13T08:04:58.264Z,1017.42
2018-12-13T08:05:58.239Z,1017.42
2018-12-13T08:06:58.210Z,1017.42
2018-12-13T08:07:58.187Z,1017.40
2018-12-13T08:08:58.164Z,1017.44
2018-12-13T08:09:58.146Z,1017.40
2018-12-13T08:10:58.106Z,1017.39
2018-12-13T08:11:58.080Z,1017.34
2018-12-13T08:12:58.055Z,1017.34
2018-12-13T08:13:58.030Z,1017.37
2018-12-13T08:14:58.009Z,1017.32
2018-12-13T08:15:57.976Z,1017.30
2018-12-13T08:16:57.950Z,1017.29
2018-12-13T08:17:57.929Z,1017.30
2018-12-13T08:18:57.896Z,1017.32
2018-12-13T08:19:57.877Z,1017.31
2018-12-13T08:20:57.842Z,1017.30
2018-12-13T08:21:57.822Z,1017.27
2018-12-13T08:22:57.800Z,1017.30
2018-12-13T08:23:57.765Z,1017.29
2018-12-13T08:24:57.738Z,1017.29
2018-12-13T08:25:57.711Z,1017.27
2018-12-13T08:26:57.685Z,1017.28
2018-12-13T08:27:57.658Z,1017.28
2018-12-13T08:28:57.633Z,1017.30
2018-12-13T08:29:57.605Z,1017.27
2018-12-13T08:30:57.587Z,1017.20
2018-12-13T08:31:57.557Z,1017.18
2018-12-13T08:32:57.529Z,1017.16
2018-12-13T08:33:57.513Z,1017.18
2018-12-13T08:34:57.475Z,1017.20
2018-12-13T08:35:57.452Z,1017.18
2018-12-13T08:36:57.425Z,1017.22
2018-12-13T08:37:57.396Z,1017.20
2018-12-13T08:38:57.372Z,1017.24
2018-12-13T08:39:57.344Z,1017.22
2018-12-13T08:40:57.322Z,1017.27
2018-12-13T08:41:57.290Z,1017.23
2018-12-13T08:42:57.267Z,1017.27
2018-12-13T08:43:57.244Z,1017.26
2018-12-13T08:44:57.214Z,1017.24
2018-12-13T08:45:57.188Z,1017.27
2018-12-13T08:46:57.161Z,1017.24
2018-12-13T08:47:57.135Z,1017.24
2018-12-13T08:48:57.110Z,1017.26
2018-12-13T08:49:57.083Z,1017.24
2018-12-13T08:50:57.056Z,1017.19
2018-12-13T08:51:57.032Z,1017.17
2018-12-13T08:52:57.035Z,1017.20
2018-12-13T08:53:56.979Z,1017.20
2018-12-13T08:54:56.962Z,1017.19
2018-12-13T08:55:56.932Z,1017.16
2018-12-13T08:56:56.901Z,1017.13
2018-12-13T08:57:56.874Z,1017.12
2018-12-13T08:58:56.848Z,1017.16
2018-12-13T08:59:56.822Z,1017.16
2018-12-13T09:00:56.797Z,1017.13
2018-12-13T09:01:56.769Z,1017.13
2018-12-13T09:02:56.745Z,1017.12
2018-12-13T09:03:56.718Z,1017.16
2018-12-13T09:04:56.691Z,1017.16
2018-12-13T09:05:56.687Z,1017.09
2018-12-13T09:06:57.088Z,1017.16
2018-12-13T09:07:56.615Z,1017.13
2018-12-13T09:08:56.596Z,1017.17
2018-12-13T09:09:56.561Z,1017.19
2018-12-13T09:10:56.538Z,1017.17
2018-12-13T09:11:56.515Z,1017.18
2018-12-13T09:12:56.484Z,1017.24
2018-12-13T09:13:56.457Z,1017.23
2018-12-13T09:14:56.433Z,1017.26
2018-12-13T09:15:56.403Z,1017.28
2018-12-13T09:16:56.379Z,1017.27
2018-12-13T09:17:56.354Z,1017.27
2018-12-13T09:18:56.330Z,1017.29
2018-12-13T09:19:56.301Z,1017.30
2018-12-13T09:20:56.281Z,1017.29
2018-12-13T09:21:56.255Z,1017.32
2018-12-13T09:22:56.221Z,1017.33
2018-12-13T09:23:56.199Z,1017.30
2018-12-13T09:24:56.171Z,1017.27
2018-12-13T09:25:56.149Z,1017.30
2018-12-13T09:26:56.118Z,1017.33
2018-12-13T09:27:56.094Z,1017.32
2018-12-13T09:28:56.070Z,1017.31
2018-12-13T09:29:56.044Z,1017.31
2018-12-13T09:30:56.014Z,1017.35
2018-12-13T09:31:55.994Z,1017.34
2018-12-13T09:32:55.968Z,1017.36
2018-12-13T09:33:55.937Z,1017.37
2018-12-13T09:34:55.911Z,1017.35
2018-12-13T09:35:55.882Z,1017.36
2018-12-13T09:36:55.856Z,1017.34
2018-12-13T09:37:55.834Z,1017.34
2018-12-13T09:38:55.806Z,1017.29
2018-12-13T09:39:55.783Z,1017.32
2018-12-13T09:40:55.756Z,1017.32
2018-12-13T09:41:55.734Z,1017.34
2018-12-13T09:42:55.699Z,1017.32
2018-12-13T09:43:55.686Z,1017.35
2018-12-13T09:44:55.648Z,1017.34
2018-12-13T09:45:55.622Z,1017.33
2018-12-13T09:46:55.598Z,1017.32
2018-12-13T09:47:55.576Z,1017.29
2018-12-13T09:48:55.548Z,1017.30
2018-12-13T09:49:55.516Z,1017.27
2018-12-13T09:50:55.493Z,1017.30
2018-12-13T09:51:55.465Z,1017.29
2018-12-13T09:52:55.452Z,1017.35
2018-12-13T09:53:55.412Z,1017.32
2018-12-13T09:54:55.384Z,1017.33
2018-12-13T09:55:55.367Z,1017.33
2018-12-13T09:56:55.333Z,1017.37
2018-12-13T09:57:55.315Z,1017.36
2018-12-13T09:58:55.282Z,1017.43
2018-12-13T09:59:55.260Z,1017.39
2018-12-13T10:00:55.229Z,1017.43
2018-12-13T10:01:55.204Z,1017.45
2018-12-13T10:02:55.176Z,1017.41
2018-12-13T10:03:55.150Z,1017.40
2018-12-13T10:04:55.132Z,1017.35
2018-12-13T10:05:55.096Z,1017.34
2018-12-13T10:06:55.079Z,1017.33
2018-12-13T10:07:55.049Z,1017.25
2018-12-13T10:08:55.022Z,1017.26
2018-12-13T10:09:54.993Z,1017.23
2018-12-13T10:10:54.969Z,1017.22
2018-12-13T10:11:54.943Z,1017.20
2018-12-13T10:12:54.927Z,1017.20
2018-12-13T10:13:54.898Z,1017.20
2018-12-13T10:14:54.863Z,1017.17
2018-12-13T10:15:54.839Z,1017.18
2018-12-13T10:16:54.810Z,1017.19
2018-12-13T10:17:54.797Z,1017.16
2018-12-13T10:18:54.762Z,1017.15
2018-12-13T10:19:54.737Z,1017.16
2018-12-13T10:20:54.710Z,1017.16
2018-12-13T10:21:54.693Z,1017.12
2018-12-13T10:22:54.653Z,1017.11
2018-12-13T10:23:54.627Z,1017.11
2018-12-13T10:24:54.613Z,1017.14
2018-12-13T10:25:59.473Z,1017.16
2018-12-13T10:26:54.551Z,1017.18
2018-12-13T10:27:54.529Z,1017.16
2018-12-13T10:28:54.502Z,1017.17
2018-12-13T10:29:54.471Z,1017.15
2018-12-13T10:30:54.446Z,1017.13
2018-12-13T10:31:54.419Z,1017.12
2018-12-13T10:32:54.392Z,1017.14
2018-12-13T10:33:54.375Z,1017.12
2018-12-13T10:34:54.340Z,1017.19
2018-12-13T10:35:54.322Z,1017.17
2018-12-13T10:36:54.297Z,1017.11
2018-12-13T10:37:54.273Z,1017.12
2018-12-13T10:38:54.243Z,1017.09
2018-12-13T10:39:54.214Z,1017.10
2018-12-13T10:40:54.189Z,1017.07
2018-12-13T10:41:54.163Z,1017.11
2018-12-13T10:42:54.133Z,1017.10
2018-12-13T10:43:54.106Z,1017.07
2018-12-13T10:44:54.082Z,1017.02
2018-12-13T10:45:54.055Z,1017.01
2018-12-13T10:46:54.210Z,1017.01
2018-12-13T10:47:54.002Z,1017.00
2018-12-13T10:48:53.976Z,1017.00
2018-12-13T10:49:53.950Z,1017.00
2018-12-13T10:50:53.930Z,1016.96
2018-12-13T10:51:53.899Z,1016.97
2018-12-13T10:52:53.887Z,1016.95
2018-12-13T10:53:53.846Z,1016.93
2018-12-13T10:54:53.836Z,1016.92
2018-12-13T10:55:53.799Z,1016.95
2018-12-13T10:56:53.772Z,1016.94
2018-12-13T10:57:53.741Z,1016.93
2018-12-13T10:58:53.718Z,1016.90
2018-12-13T10:59:53.689Z,1016.90
2018-12-13T11:00:53.667Z,1016.85
2018-12-13T11:01:53.640Z,1016.90
2018-12-13T11:02:53.615Z,1016.90
2018-12-13T11:03:53.589Z,1016.93
2018-12-13T11:04:53.566Z,1016.89
2018-12-13T11:05:53.535Z,1016.91
2018-12-13T11:06:53.512Z,1016.92
2018-12-13T11:07:53.484Z,1016.90
2018-12-13T11:08:59.264Z,1016.89
2018-12-13T11:09:53.437Z,1016.87
2018-12-13T11:10:53.411Z,1016.85
2018-12-13T11:11:53.378Z,1016.86
2018-12-13T11:12:53.357Z,1016.86
2018-12-13T11:13:53.330Z,1016.82
2018-12-13T11:14:53.301Z,1016.85
2018-12-13T11:15:53.280Z,1016.83
2018-12-13T11:16:53.252Z,1016.80
2018-12-13T11:17:53.224Z,1016.73
2018-12-13T11:18:53.198Z,1016.72
2018-12-13T11:19:53.176Z,1016.71
2018-12-13T11:20:53.147Z,1016.75
2018-12-13T11:21:53.136Z,1016.70
2018-12-13T11:22:53.103Z,1016.69
2018-12-13T11:23:53.070Z,1016.71
2018-12-13T11:24:53.052Z,1016.68
2018-12-13T11:25:53.016Z,1016.69
2018-12-13T11:26:52.989Z,1016.69
2018-12-13T11:27:52.964Z,1016.68
2018-12-13T11:28:52.940Z,1016.68
2018-12-13T11:29:52.915Z,1016.66
2018-12-13T11:30:52.889Z,1016.64
2018-12-13T11:31:52.861Z,1016.64
2018-12-13T11:32:52.836Z,1016.60
2018-12-13T11:33:52.809Z,1016.64
2018-12-13T11:34:52.785Z,1016.63
2018-12-13T11:35:52.758Z,1016.62
2018-12-13T11:36:52.732Z,1016.61
2018-12-13T11:37:52.708Z,1016.65
2018-12-13T11:38:52.682Z,1016.60
2018-12-13T11:39:52.655Z,1016.60
2018-12-13T11:40:52.630Z,1016.60
2018-12-13T11:41:52.603Z,1016.59
2018-12-13T11:42:52.585Z,1016.56
2018-12-13T11:43:52.552Z,1016.55
2018-12-13T11:44:52.535Z,1016.52
2018-12-13T11:45:52.505Z,1016.50
2018-12-13T11:46:52.489Z,1016.46
2018-12-13T11:47:52.449Z,1016.47
2018-12-13T11:48:52.423Z,1016.43
2018-12-13T11:49:52.396Z,1016.45
2018-12-13T11:50:52.371Z,1016.42
2018-12-13T11:51:52.343Z,1016.42
2018-12-13T11:52:52.321Z,1016.42
2018-12-13T11:53:52.299Z,1016.43
2018-12-13T11:54:52.264Z,1016.39
2018-12-13T11:55:52.241Z,1016.39
2018-12-13T11:56:52.215Z,1016.37
2018-12-13T11:57:52.190Z,1016.31
2018-12-13T11:58:52.164Z,1016.31
2018-12-13T11:59:52.143Z,1016.27
2018-12-13T12:00:52.117Z,1016.24
2018-12-13T12:01:52.086Z,1016.24
2018-12-13T12:02:52.064Z,1016.20
2018-12-13T12:03:52.044Z,1016.17
2018-12-13T12:04:52.009Z,1016.09